Pagrindinis puslapis
METAR-TAF:

METAR-TAF

Oro uostai :

Helsinkis, Suomija

platuma: 60-19N, ilguma: 024-58E, Aukštis: 51 m

Dabartinis oras

Ataskaita buvo paskelbta 12 minutes, ne 15:50 UTC
Vėjas 8 kt iš Šiaurės/Šiaurės Vakarų
Temperatūra 8°C
Drėgmė 53%
Slėgis 1018 hPa
Matomumas 10 km arba daugiau
Mažai debesys ne aukštis 4600 ft

METAR: EFHK 221550Z 34008KT 9999 FEW046 08/M01 Q1018 NOSIG

Laikas: 19:02 (16:02 UTC)

Prognozė

Ataskaita buvo paskelbta 1 valandą ir 28 minutes, ne 14:34 UTC
Prognozė galioja nuo 22 metu 15 UTC su 23 metu 15 UTC
Vėjas 9 kt iš Šiaurės
Matomumas 10 km arba daugiau
nėra debesų žemiau 1500 m ir nėra kamuolinių lietaus debesų

TAF: EFHK 221434Z 2215/2315 35009KT CAVOK

Orai ataskaitas ir orų prognozės (METAR, TAF).

turimą stotys yra geltonos ir raudonos taškus žemėlapyje.

Perkelti pele per norėdami pamatyti stoties vardą.

Tada spustelėkite, norėdami matyti oro stebėjimo ir prognozės.

Norėdami pakeisti žemėlapį: spustelėkite ant žalios mygtukų su juodo kryžiaus žemyn,; žalią mygtuką su brūkšneliu, jei norite nutolinti; arba žalių rodyklių gretimoms žemėlapius.


METAR-TAF: